Time;durP1;ratioP1;P1;durP2;ratioP2;P2;SDS_P1;SDS_P2;PMS_P1;PMS_P2;Temp;Humidity;BMP_temperature;BMP_pressure;BME280_temperature;BME280_humidity;BME280_pressure;Samples;Min_cycle;Max_cycle;Signal;HPM_P1;HPM_P2
2023/05/23 00:01:02;;;;;;;20.97;16.97;;;15.70;99.90;;;;;;5130376;27;20420;-66
2023/05/23 00:03:30;;;;;;;20.73;16.37;;;15.80;99.90;;;;;;5130011;27;20512;-67
2023/05/23 00:05:55;;;;;;;24.20;18.23;;;15.90;99.90;;;;;;5111641;27;20624;-67
2023/05/23 00:08:21;;;;;;;32.33;20.20;;;16.00;99.90;;;;;;5129840;27;20496;-67
2023/05/23 00:10:47;;;;;;;26.30;20.00;;;16.10;99.90;;;;;;5129828;27;20419;-67
2023/05/23 00:13:13;;;;;;;28.13;20.07;;;16.20;99.90;;;;;;5129830;27;20302;-67
2023/05/23 00:15:42;;;;;;;31.83;21.93;;;16.30;99.90;;;;;;5129751;27;20224;-67
2023/05/23 00:18:12;;;;;;;28.90;20.07;;;16.30;99.90;;;;;;5129544;27;20881;-67
2023/05/23 00:20:41;;;;;;;31.47;21.47;;;16.40;99.90;;;;;;5129576;27;20988;-67
2023/05/23 00:23:08;;;;;;;29.13;21.93;;;16.50;99.90;;;;;;5129467;27;20415;-67
2023/05/23 00:25:35;;;;;;;28.23;20.77;;;16.50;99.90;;;;;;5110928;27;20810;-66
2023/05/23 00:28:01;;;;;;;40.37;23.37;;;16.60;99.90;;;;;;5129351;27;20474;-67
2023/05/23 00:30:29;;;;;;;37.73;25.00;;;16.60;99.90;;;;;;5129222;27;20421;-67
2023/05/23 00:32:54;;;;;;;38.10;23.77;;;16.70;99.90;;;;;;5110507;28;21004;-67
2023/05/23 00:35:20;;;;;;;39.67;24.10;;;16.70;99.90;;;;;;5129179;27;20429;-67
2023/05/23 00:37:49;;;;;;;36.97;24.43;;;16.80;99.90;;;;;;5128983;27;20762;-67
2023/05/23 00:40:14;;;;;;;35.37;23.70;;;16.80;99.90;;;;;;5130224;27;20431;-67
2023/05/23 00:42:40;;;;;;;38.87;24.93;;;16.80;99.90;;;;;;5133268;27;20911;-67
2023/05/23 00:45:06;;;;;;;40.37;24.93;;;16.80;99.90;;;;;;5114760;27;20419;-67
2023/05/23 00:47:32;;;;;;;40.83;25.80;;;16.80;99.90;;;;;;5133360;27;20200;-67
2023/05/23 00:49:58;;;;;;;43.30;28.37;;;16.90;99.90;;;;;;5133452;27;20426;-67
2023/05/23 00:52:24;;;;;;;42.53;28.47;;;16.90;99.90;;;;;;5133325;27;20188;-67
2023/05/23 00:54:50;;;;;;;44.93;28.57;;;16.80;99.90;;;;;;5133200;27;20420;-67
2023/05/23 00:57:15;;;;;;;47.13;28.60;;;16.90;99.90;;;;;;5133033;27;20207;-67
2023/05/23 00:59:43;;;;;;;44.23;28.83;;;16.90;99.90;;;;;;5133012;27;20563;-67
2023/05/23 01:02:09;;;;;;;60.97;29.57;;;16.90;99.90;;;;;;5133320;27;20551;-66
2023/05/23 01:04:36;;;;;;;50.87;30.77;;;17.00;99.90;;;;;;5132941;27;20423;-67
2023/05/23 01:07:02;;;;;;;55.63;32.37;;;17.00;99.90;;;;;;5132816;27;20518;-66
2023/05/23 01:09:28;;;;;;;53.63;32.70;;;16.90;99.90;;;;;;5132967;27;20428;-67
2023/05/23 01:12:24;;;;;;;56.27;34.10;;;17.00;99.90;;;;;;5132846;27;20191;-67
2023/05/23 01:14:55;;;;;;;61.47;35.50;;;17.00;99.90;;;;;;5114253;27;21001;-66
2023/05/23 01:17:40;;;;;;;53.27;33.40;;;17.00;99.90;;;;;;5132680;27;20465;-67
2023/05/23 01:20:11;;;;;;;64.03;36.53;;;17.00;99.90;;;;;;5132993;27;20414;-67
2023/05/23 01:23:01;;;;;;;68.27;36.53;;;17.00;99.90;;;;;;5132536;27;20429;-67
2023/05/23 01:26:01;;;;;;;66.50;38.57;;;17.00;99.90;;;;;;5132623;27;20414;-67
2023/05/23 01:28:42;;;;;;;64.17;38.90;;;17.00;99.90;;;;;;5132729;27;20456;-67
2023/05/23 01:31:10;;;;;;;70.77;39.17;;;17.00;99.90;;;;;;5132266;27;20973;-67
2023/05/23 01:33:38;;;;;;;83.17;40.97;;;17.00;99.90;;;;;;5132584;27;20444;-67
2023/05/23 01:36:04;;;;;;;69.27;41.77;;;17.00;99.90;;;;;;5132310;27;20424;-67
2023/05/23 01:38:30;;;;;;;69.97;40.93;;;17.10;99.90;;;;;;5132351;27;20472;-67
2023/05/23 01:40:56;;;;;;;76.13;42.73;;;16.90;99.90;;;;;;5113368;27;20425;-67
2023/05/23 01:43:24;;;;;;;85.97;44.03;;;17.00;99.90;;;;;;5132172;27;20213;-67
2023/05/23 01:45:51;;;;;;;72.03;40.90;;;17.00;99.90;;;;;;5132130;27;20432;-67
2023/05/23 01:48:17;;;;;;;73.47;40.70;;;16.90;99.90;;;;;;5113653;27;20413;-67
2023/05/23 01:50:46;;;;;;;73.30;42.20;;;16.90;99.90;;;;;;5112943;27;20427;-67
2023/05/23 01:53:21;;;;;;;70.40;42.10;;;16.90;99.90;;;;;;5132170;27;20415;-67
2023/05/23 01:55:46;;;;;;;74.77;42.10;;;16.90;99.90;;;;;;5131982;27;20421;-67
2023/05/23 01:58:12;;;;;;;85.40;44.87;;;16.90;99.90;;;;;;5131794;27;20469;-67
2023/05/23 02:00:38;;;;;;;74.70;42.13;;;16.90;99.90;;;;;;5131885;27;20557;-67
2023/05/23 02:03:04;;;;;;;75.30;42.97;;;16.90;99.90;;;;;;5132039;27;20414;-67
2023/05/23 02:05:30;;;;;;;75.97;42.17;;;16.90;99.90;;;;;;5113401;27;20243;-67
2023/05/23 02:07:56;;;;;;;72.23;41.53;;;16.90;99.90;;;;;;5131878;27;20462;-67
2023/05/23 02:10:21;;;;;;;80.77;46.27;;;16.90;99.90;;;;;;5131861;27;20272;-67
2023/05/23 02:12:47;;;;;;;71.63;39.30;;;16.90;99.90;;;;;;5131626;27;20190;-67
2023/05/23 02:15:13;;;;;;;84.80;41.63;;;16.90;99.90;;;;;;5131666;27;20687;-67
2023/05/23 02:17:40;;;;;;;78.67;41.40;;;16.90;99.90;;;;;;5131595;27;20214;-67
2023/05/23 02:20:06;;;;;;;60.93;37.10;;;16.90;99.90;;;;;;5131424;27;20199;-67
2023/05/23 02:22:32;;;;;;;72.53;42.53;;;16.90;99.90;;;;;;5130910;27;20461;-66
2023/05/23 02:24:57;;;;;;;77.83;40.90;;;16.90;99.90;;;;;;5131451;27;20523;-67
2023/05/23 02:27:23;;;;;;;80.57;42.40;;;16.90;99.90;;;;;;5131318;27;20716;-67
2023/05/23 02:29:49;;;;;;;88.67;44.63;;;16.90;99.90;;;;;;5131494;27;20284;-67
2023/05/23 02:32:14;;;;;;;80.57;46.30;;;16.90;99.90;;;;;;5131539;27;20650;-67
2023/05/23 02:34:40;;;;;;;88.10;47.23;;;16.90;99.90;;;;;;5131386;27;20200;-67
2023/05/23 02:37:06;;;;;;;90.40;49.40;;;16.90;99.90;;;;;;5131127;27;20946;-67
2023/05/23 02:39:31;;;;;;;88.47;45.40;;;16.90;99.90;;;;;;5131194;27;20190;-66
2023/05/23 02:41:57;;;;;;;91.23;48.33;;;16.90;99.90;;;;;;5131045;27;20243;-66
2023/05/23 02:44:22;;;;;;;95.50;50.70;;;16.90;99.90;;;;;;5131205;27;20178;-67
2023/05/23 02:46:48;;;;;;;102.63;51.53;;;16.90;99.90;;;;;;5130916;27;20203;-66
2023/05/23 02:49:13;;;;;;;106.03;52.60;;;16.90;99.90;;;;;;5131014;27;20194;-67
2023/05/23 02:51:39;;;;;;;102.07;51.97;;;16.90;99.90;;;;;;5131227;27;20668;-67
2023/05/23 02:54:05;;;;;;;106.43;51.63;;;16.90;99.90;;;;;;5112231;27;20297;-66
2023/05/23 02:56:30;;;;;;;105.27;53.63;;;16.90;99.90;;;;;;5130681;27;20212;-67
2023/05/23 02:58:56;;;;;;;107.40;50.40;;;16.80;99.90;;;;;;5130669;27;20220;-67
2023/05/23 03:01:22;;;;;;;108.17;52.27;;;16.90;99.90;;;;;;5130679;27;20183;-67
2023/05/23 03:03:47;;;;;;;113.77;53.63;;;16.90;99.90;;;;;;5129847;27;20683;-67
2023/05/23 03:06:13;;;;;;;106.50;52.10;;;16.80;99.90;;;;;;5130532;27;20905;-67
2023/05/23 03:08:42;;;;;;;113.83;55.57;;;16.80;99.90;;;;;;5112081;27;20683;-66
2023/05/23 03:11:08;;;;;;;118.40;57.30;;;16.80;99.90;;;;;;5130534;27;20659;-67
2023/05/23 03:13:34;;;;;;;127.83;59.80;;;16.80;99.90;;;;;;5111662;27;20434;-66
2023/05/23 03:16:00;;;;;;;126.53;58.23;;;16.80;99.90;;;;;;5130444;27;20438;-67
2023/05/23 03:18:26;;;;;;;117.90;54.27;;;16.70;99.90;;;;;;5130299;27;20968;-67
2023/05/23 03:20:52;;;;;;;105.73;54.90;;;16.70;99.90;;;;;;5130322;27;20440;-67
2023/05/23 03:23:18;;;;;;;114.83;55.03;;;16.70;99.90;;;;;;5130281;27;20260;-67
2023/05/23 03:25:43;;;;;;;122.33;56.50;;;16.70;99.90;;;;;;5130227;27;20280;-66
2023/05/23 03:28:11;;;;;;;119.63;57.70;;;16.70;99.90;;;;;;5130142;27;20699;-66
2023/05/23 03:30:37;;;;;;;113.13;57.53;;;16.70;99.90;;;;;;5111370;27;20200;-67
2023/05/23 03:33:02;;;;;;;117.87;57.87;;;16.60;99.90;;;;;;5130173;27;20421;-66
2023/05/23 03:35:28;;;;;;;137.93;59.37;;;16.60;99.90;;;;;;5130175;27;20422;-66
2023/05/23 03:37:54;;;;;;;118.10;56.60;;;16.60;99.90;;;;;;5129801;27;20535;-66
2023/05/23 03:40:20;;;;;;;123.90;58.00;;;16.70;99.90;;;;;;5130044;27;20718;-66
2023/05/23 03:42:47;;;;;;;121.93;59.63;;;16.70;99.90;;;;;;5111405;27;20526;-66
2023/05/23 03:45:13;;;;;;;141.20;60.70;;;16.70;99.90;;;;;;5129808;27;20780;-67
2023/05/23 03:47:38;;;;;;;125.73;60.23;;;16.60;99.90;;;;;;5111330;27;20444;-66
2023/05/23 03:50:05;;;;;;;131.20;60.83;;;16.60;99.90;;;;;;5129710;27;20197;-66
2023/05/23 03:52:30;;;;;;;127.13;62.10;;;16.60;99.90;;;;;;5129922;27;20194;-66
2023/05/23 03:54:56;;;;;;;137.03;58.97;;;16.60;99.90;;;;;;5130333;27;20426;-66
2023/05/23 03:57:21;;;;;;;119.77;61.20;;;16.60;99.90;;;;;;5130073;27;20205;-67
2023/05/23 03:59:47;;;;;;;125.60;61.47;;;16.50;99.90;;;;;;5130467;27;20191;-67
2023/05/23 04:02:13;;;;;;;135.70;64.27;;;16.60;99.90;;;;;;5129958;27;20179;-67
2023/05/23 04:04:38;;;;;;;144.30;65.50;;;16.50;99.90;;;;;;5130011;27;20187;-67
2023/05/23 04:07:04;;;;;;;129.73;62.33;;;16.50;99.90;;;;;;5130480;27;20252;-67
2023/05/23 04:09:30;;;;;;;144.97;65.83;;;16.60;99.90;;;;;;5130522;27;20194;-67
2023/05/23 04:11:57;;;;;;;129.23;63.63;;;16.50;99.90;;;;;;5111667;27;20436;-67
2023/05/23 04:14:26;;;;;;;119.43;60.30;;;16.50;99.90;;;;;;5130399;27;20274;-67
2023/05/23 04:16:51;;;;;;;127.63;66.60;;;16.50;99.90;;;;;;5130336;27;20875;-66
2023/05/23 04:19:17;;;;;;;131.33;63.90;;;16.50;99.90;;;;;;5130339;27;20415;-66
2023/05/23 04:21:43;;;;;;;132.87;66.33;;;16.50;99.90;;;;;;5111792;27;20191;-66
2023/05/23 04:24:08;;;;;;;134.00;65.63;;;16.50;99.90;;;;;;5130401;27;20186;-66
2023/05/23 04:26:35;;;;;;;134.60;68.47;;;16.50;99.90;;;;;;5130148;27;20293;-67
2023/05/23 04:29:02;;;;;;;128.30;64.80;;;16.50;99.90;;;;;;5130206;27;20180;-67
2023/05/23 04:31:28;;;;;;;130.13;63.97;;;16.50;99.90;;;;;;5130233;28;20509;-66
2023/05/23 04:33:53;;;;;;;131.90;64.37;;;16.50;99.90;;;;;;5130122;27;20419;-66
2023/05/23 04:36:19;;;;;;;128.77;66.63;;;16.50;99.90;;;;;;5111412;28;20199;-66
2023/05/23 04:38:44;;;;;;;128.87;65.87;;;16.50;99.90;;;;;;5129815;28;20210;-66
2023/05/23 04:41:10;;;;;;;129.13;64.20;;;16.50;99.90;;;;;;5129593;27;20651;-66
2023/05/23 04:43:41;;;;;;;141.83;61.87;;;16.50;99.90;;;;;;5129673;28;20180;-67
2023/05/23 04:46:12;;;;;;;129.40;63.57;;;16.50;99.90;;;;;;5129606;27;20235;-67
2023/05/23 04:48:38;;;;;;;131.83;65.47;;;16.50;99.90;;;;;;5129395;28;20474;-67
2023/05/23 04:51:07;;;;;;;125.17;64.60;;;16.50;99.90;;;;;;5129279;28;20444;-66
2023/05/23 04:53:34;;;;;;;121.00;64.63;;;16.50;99.90;;;;;;5128702;28;20183;-67
2023/05/23 04:55:59;;;;;;;127.63;64.20;;;16.50;99.90;;;;;;5128718;27;20420;-67
2023/05/23 04:58:25;;;;;;;125.33;63.90;;;16.60;99.90;;;;;;5128847;27;20458;-66
2023/05/23 05:00:50;;;;;;;122.03;64.93;;;16.60;99.90;;;;;;5128691;28;20210;-67
2023/05/23 05:03:16;;;;;;;124.17;63.30;;;16.60;99.90;;;;;;5093318;28;20201;-66
2023/05/23 05:05:42;;;;;;;127.37;65.13;;;16.50;99.90;;;;;;5128648;27;20596;-66
2023/05/23 05:08:07;;;;;;;127.27;63.90;;;16.60;99.90;;;;;;5128490;27;20219;-67
2023/05/23 05:10:33;;;;;;;116.90;64.07;;;16.60;99.90;;;;;;5128393;28;20175;-66
2023/05/23 05:12:59;;;;;;;119.37;64.70;;;16.50;99.90;;;;;;5109800;28;20208;-66
2023/05/23 05:15:24;;;;;;;135.37;65.23;;;16.50;99.90;;;;;;5128595;28;20269;-66
2023/05/23 05:17:50;;;;;;;120.67;64.60;;;16.50;99.90;;;;;;5128318;27;20749;-66
2023/05/23 05:20:16;;;;;;;121.90;62.10;;;16.50;99.90;;;;;;5128163;28;20183;-66
2023/05/23 05:22:42;;;;;;;131.00;63.60;;;16.50;99.90;;;;;;5128029;28;20185;-66
2023/05/23 05:25:10;;;;;;;122.70;62.30;;;16.50;99.90;;;;;;5127892;27;20167;-67
2023/05/23 05:27:38;;;;;;;120.77;62.07;;;16.60;99.90;;;;;;5131283;27;20440;-66
2023/05/23 05:30:08;;;;;;;123.13;63.83;;;16.50;99.90;;;;;;5131846;27;20508;-65
2023/05/23 05:32:34;;;;;;;117.30;64.13;;;16.50;99.90;;;;;;5132101;27;20416;-66
2023/05/23 05:35:00;;;;;;;117.90;62.53;;;16.50;99.90;;;;;;5131699;27;20420;-66
2023/05/23 05:37:26;;;;;;;124.57;63.47;;;16.50;99.90;;;;;;5131373;27;20255;-66
2023/05/23 05:39:53;;;;;;;117.27;57.90;;;16.50;99.90;;;;;;5131596;27;20408;-67
2023/05/23 05:42:19;;;;;;;115.23;59.57;;;16.50;99.90;;;;;;5131518;27;20683;-67
2023/05/23 05:44:44;;;;;;;116.60;59.10;;;16.50;99.90;;;;;;5131507;27;20418;-67
2023/05/23 05:47:10;;;;;;;143.57;60.50;;;16.50;99.90;;;;;;5131864;27;20785;-67
2023/05/23 05:49:36;;;;;;;105.50;58.60;;;16.50;99.90;;;;;;5096256;27;20935;-67
2023/05/23 05:52:01;;;;;;;105.93;54.87;;;16.50;99.90;;;;;;5131715;27;20213;-65
2023/05/23 05:54:27;;;;;;;117.70;57.70;;;16.60;99.90;;;;;;5131724;27;20189;-66
2023/05/23 05:56:54;;;;;;;102.20;57.10;;;16.50;99.90;;;;;;5131546;27;20558;-66
2023/05/23 05:59:19;;;;;;;109.60;58.37;;;16.50;99.90;;;;;;5131857;27;20186;-66
2023/05/23 06:01:45;;;;;;;109.80;59.50;;;16.60;99.90;;;;;;5112799;27;20433;-66
2023/05/23 06:04:10;;;;;;;108.83;58.47;;;16.60;99.90;;;;;;5131467;27;20619;-67
2023/05/23 06:06:36;;;;;;;116.43;61.17;;;16.60;99.90;;;;;;5131142;27;20735;-66
2023/05/23 06:09:02;;;;;;;105.27;56.23;;;16.60;99.90;;;;;;5131053;27;20220;-67
2023/05/23 06:11:27;;;;;;;100.70;56.63;;;16.60;99.90;;;;;;5130999;27;20616;-66
2023/05/23 06:13:53;;;;;;;97.70;57.47;;;16.70;99.90;;;;;;5130693;27;20185;-66
2023/05/23 06:16:18;;;;;;;112.23;57.27;;;16.70;99.90;;;;;;5130639;27;20204;-66
2023/05/23 06:18:44;;;;;;;105.70;57.90;;;16.70;99.90;;;;;;5111583;27;20240;-66
2023/05/23 06:21:09;;;;;;;102.60;56.77;;;16.70;99.90;;;;;;5130200;27;20202;-66
2023/05/23 06:23:35;;;;;;;112.87;56.30;;;16.70;99.90;;;;;;5130217;27;20207;-66
2023/05/23 06:26:01;;;;;;;99.73;56.67;;;16.70;99.90;;;;;;5130090;27;20650;-67
2023/05/23 06:28:26;;;;;;;100.57;56.47;;;16.70;99.90;;;;;;5130169;27;20183;-66
2023/05/23 06:30:52;;;;;;;101.27;54.53;;;16.70;99.90;;;;;;5130495;27;20205;-67
2023/05/23 06:33:19;;;;;;;97.90;57.93;;;16.70;99.90;;;;;;5130040;27;20270;-67
2023/05/23 06:35:44;;;;;;;103.20;58.57;;;16.70;99.90;;;;;;5130045;27;20208;-66
2023/05/23 06:38:10;;;;;;;100.87;54.63;;;16.70;99.90;;;;;;5129916;27;20511;-66
2023/05/23 06:40:35;;;;;;;96.97;55.77;;;16.70;99.90;;;;;;5111119;27;20192;-66
2023/05/23 06:43:01;;;;;;;109.00;58.03;;;16.70;99.90;;;;;;5129597;27;20208;-66
2023/05/23 06:45:27;;;;;;;97.00;57.83;;;16.70;99.90;;;;;;5129711;27;20828;-67
2023/05/23 06:47:52;;;;;;;87.27;54.37;;;16.70;99.90;;;;;;5111140;27;20252;-66
2023/05/23 06:50:21;;;;;;;100.93;58.03;;;16.70;99.90;;;;;;5129814;27;20184;-66
2023/05/23 06:52:46;;;;;;;100.80;57.27;;;16.80;99.90;;;;;;5129711;27;20190;-67
2023/05/23 06:55:16;;;;;;;104.80;57.93;;;16.80;99.90;;;;;;5129735;27;20421;-66
2023/05/23 06:57:43;;;;;;;91.77;55.97;;;16.90;99.90;;;;;;5129785;27;20222;-66
2023/05/23 07:00:09;;;;;;;89.30;53.63;;;17.00;99.90;;;;;;5130062;27;20441;-67
2023/05/23 07:02:35;;;;;;;89.77;56.80;;;17.00;99.90;;;;;;5129923;27;20425;-67
2023/05/23 07:05:00;;;;;;;91.80;53.97;;;17.00;99.90;;;;;;5129765;27;20409;-67
2023/05/23 07:07:26;;;;;;;91.83;55.60;;;17.00;99.90;;;;;;5111342;27;20203;-67
2023/05/23 07:09:51;;;;;;;79.27;52.60;;;17.00;99.90;;;;;;5129844;27;20191;-66
2023/05/23 07:12:17;;;;;;;79.13;52.60;;;17.00;99.90;;;;;;5129996;27;20192;-67
2023/05/23 07:14:43;;;;;;;89.37;55.00;;;16.90;99.90;;;;;;5129768;27;20207;-68
2023/05/23 07:17:08;;;;;;;87.03;58.33;;;17.00;99.90;;;;;;5129284;27;20221;-67
2023/05/23 07:19:34;;;;;;;92.17;57.00;;;17.00;99.90;;;;;;5129465;27;20192;-66
2023/05/23 07:21:59;;;;;;;82.80;54.47;;;17.00;99.90;;;;;;5110984;27;20181;-66
2023/05/23 07:24:25;;;;;;;77.93;51.83;;;17.00;99.90;;;;;;5129513;27;20204;-66
2023/05/23 07:26:51;;;;;;;81.57;54.03;;;17.10;99.90;;;;;;5110813;27;20212;-66
2023/05/23 07:29:16;;;;;;;79.80;52.80;;;17.10;99.90;;;;;;5111003;27;20183;-66
2023/05/23 07:31:42;;;;;;;85.53;54.53;;;17.20;99.90;;;;;;5129594;27;20274;-66
2023/05/23 07:34:07;;;;;;;83.20;55.00;;;17.10;99.90;;;;;;5110384;27;20221;-66
2023/05/23 07:36:34;;;;;;;87.33;55.40;;;17.10;99.90;;;;;;5128870;27;20205;-66
2023/05/23 07:39:00;;;;;;;66.13;46.00;;;17.10;99.90;;;;;;5128716;27;20216;-65
2023/05/23 07:41:26;;;;;;;85.23;53.90;;;17.10;99.90;;;;;;5128486;27;20453;-65
2023/05/23 07:43:51;;;;;;;91.10;56.47;;;17.10;99.90;;;;;;5128754;27;20902;-67
2023/05/23 07:46:17;;;;;;;87.80;53.77;;;17.20;99.90;;;;;;5128829;27;20207;-65
2023/05/23 07:48:43;;;;;;;89.17;54.03;;;17.10;99.90;;;;;;5128167;27;20203;-68
2023/05/23 07:51:08;;;;;;;80.90;53.07;;;17.10;99.90;;;;;;5128476;27;20186;-67
2023/05/23 07:53:38;;;;;;;85.13;49.90;;;17.10;99.90;;;;;;5128708;27;20599;-68
2023/05/23 07:56:04;;;;;;;76.47;52.30;;;17.10;99.90;;;;;;5128612;27;20546;-67
2023/05/23 07:58:30;;;;;;;85.27;54.60;;;17.10;99.90;;;;;;5128504;27;20840;-67
2023/05/23 08:00:56;;;;;;;80.97;52.03;;;17.00;99.90;;;;;;5128757;27;20428;-67
2023/05/23 08:03:23;;;;;;;81.67;54.17;;;17.10;99.90;;;;;;5128682;27;20651;-67
2023/05/23 08:05:48;;;;;;;75.80;50.80;;;17.00;99.90;;;;;;5128785;27;20471;-66
2023/05/23 08:08:15;;;;;;;72.70;50.40;;;17.00;99.90;;;;;;5128371;27;20428;-67
2023/05/23 08:10:40;;;;;;;79.00;53.33;;;17.00;99.90;;;;;;5128433;27;20186;-67
2023/05/23 08:13:08;;;;;;;78.50;52.90;;;17.00;99.90;;;;;;5128390;27;20525;-67
2023/05/23 08:15:33;;;;;;;76.30;50.93;;;16.90;99.90;;;;;;5128460;27;20191;-67
2023/05/23 08:17:59;;;;;;;78.90;53.23;;;16.90;99.90;;;;;;5127919;27;20471;-67
2023/05/23 08:20:29;;;;;;;84.37;53.07;;;16.80;99.90;;;;;;5127963;27;20178;-67
2023/05/23 08:22:59;;;;;;;81.33;52.07;;;16.70;99.90;;;;;;5128000;27;20669;-66
2023/05/23 08:25:29;;;;;;;70.13;49.13;;;16.50;99.90;;;;;;5127811;27;21225;-67
2023/05/23 08:27:56;;;;;;;65.37;47.80;;;16.40;99.90;;;;;;5128029;27;20442;-67
2023/05/23 08:30:22;;;;;;;73.57;49.40;;;16.30;99.90;;;;;;5128090;27;20423;-67
2023/05/23 08:32:47;;;;;;;69.10;47.67;;;16.30;99.90;;;;;;5109312;27;20423;-66
2023/05/23 08:35:13;;;;;;;69.63;46.73;;;16.30;99.90;;;;;;5128780;27;20912;-66
2023/05/23 08:37:39;;;;;;;60.50;44.90;;;16.30;99.90;;;;;;5128264;27;20214;-66
2023/05/23 08:40:11;;;;;;;69.57;48.23;;;16.30;99.90;;;;;;5128314;28;20226;-66
2023/05/23 08:42:37;;;;;;;65.30;46.90;;;16.30;99.90;;;;;;5128238;28;20210;-66
2023/05/23 08:45:03;;;;;;;60.63;44.23;;;16.30;99.90;;;;;;5128262;27;20418;-66
2023/05/23 08:47:32;;;;;;;63.67;47.03;;;16.30;99.90;;;;;;5128530;27;20204;-66
2023/05/23 08:49:58;;;;;;;74.53;52.10;;;16.30;99.90;;;;;;5128362;27;20422;-67
2023/05/23 08:52:26;;;;;;;66.40;49.70;;;16.30;99.90;;;;;;5128539;27;20419;-67
2023/05/23 08:54:52;;;;;;;72.27;50.13;;;16.30;99.90;;;;;;5128398;28;20423;-66
2023/05/23 08:57:17;;;;;;;66.10;47.33;;;16.30;99.90;;;;;;5128415;27;20459;-65
2023/05/23 08:59:44;;;;;;;67.00;46.87;;;16.30;99.90;;;;;;5128494;28;20229;-65
2023/05/23 09:02:13;;;;;;;64.40;44.93;;;16.30;99.90;;;;;;5131174;27;20181;-66
2023/05/23 09:04:39;;;;;;;69.60;49.37;;;16.20;99.90;;;;;;5132540;27;20420;-65
2023/05/23 09:07:05;;;;;;;73.87;49.03;;;16.30;99.90;;;;;;5132366;27;20452;-65
2023/05/23 09:09:31;;;;;;;71.43;50.07;;;16.20;99.90;;;;;;5114331;27;20298;-67
2023/05/23 09:11:58;;;;;;;66.63;51.53;;;16.20;99.90;;;;;;5132297;27;20978;-66
2023/05/23 09:14:25;;;;;;;76.00;50.00;;;16.10;99.90;;;;;;5114910;27;20188;-66
2023/05/23 09:16:51;;;;;;;69.20;49.67;;;16.10;99.90;;;;;;5115850;27;20440;-66
2023/05/23 09:19:17;;;;;;;71.70;49.33;;;16.10;99.90;;;;;;5134057;27;20420;-66
2023/05/23 09:21:44;;;;;;;59.03;43.03;;;16.10;99.90;;;;;;5132607;27;20707;-66
2023/05/23 09:24:10;;;;;;;57.00;43.83;;;16.10;99.90;;;;;;5133030;27;20581;-66
2023/05/23 09:26:37;;;;;;;57.23;44.10;;;16.10;99.90;;;;;;5132394;27;20474;-66
2023/05/23 09:29:05;;;;;;;54.77;42.73;;;16.10;99.90;;;;;;5132899;27;20514;-66
2023/05/23 09:31:31;;;;;;;55.13;40.63;;;16.10;99.90;;;;;;5132693;27;20830;-67
2023/05/23 09:33:58;;;;;;;64.13;39.47;;;16.10;99.90;;;;;;5132844;27;20437;-65
2023/05/23 09:36:31;;;;;;;50.73;39.30;;;16.10;99.90;;;;;;5132838;27;20197;-67
2023/05/23 09:39:00;;;;;;;48.20;37.73;;;16.10;99.90;;;;;;5132628;27;20528;-66
2023/05/23 09:41:31;;;;;;;49.80;39.33;;;16.10;99.90;;;;;;5132167;27;20937;-66
2023/05/23 09:43:57;;;;;;;52.33;38.00;;;16.20;99.90;;;;;;5131812;27;20519;-67
2023/05/23 09:46:27;;;;;;;53.67;38.43;;;16.20;99.90;;;;;;5131734;27;20932;-66
2023/05/23 09:48:54;;;;;;;52.40;40.13;;;16.10;99.90;;;;;;5131800;27;20183;-66
2023/05/23 09:51:21;;;;;;;51.90;37.37;;;16.10;99.90;;;;;;5113275;27;20419;-67
2023/05/23 09:53:47;;;;;;;50.47;39.70;;;16.10;99.90;;;;;;5131464;27;20419;-67
2023/05/23 09:56:16;;;;;;;46.73;36.73;;;16.10;99.90;;;;;;5112474;27;20448;-66
2023/05/23 09:58:46;;;;;;;45.37;34.30;;;16.20;99.90;;;;;;5130960;27;20485;-67
2023/05/23 10:01:13;;;;;;;41.50;32.17;;;16.10;99.90;;;;;;5131061;27;20413;-66
2023/05/23 10:03:48;;;;;;;46.03;31.87;;;16.10;99.90;;;;;;5131077;27;20422;-66
2023/05/23 10:06:24;;;;;;;38.53;29.37;;;16.10;99.90;;;;;;5131288;27;20567;-66
2023/05/23 10:08:56;;;;;;;37.87;29.70;;;16.10;99.90;;;;;;5130619;27;20848;-66
2023/05/23 10:11:34;;;;;;;36.60;28.70;;;16.20;99.90;;;;;;5130817;27;20434;-66
2023/05/23 10:14:03;;;;;;;38.77;28.67;;;16.20;99.90;;;;;;5111840;27;20945;-66
2023/05/23 10:16:51;;;;;;;40.40;30.37;;;16.20;99.90;;;;;;5130792;27;20526;-67
2023/05/23 10:19:23;;;;;;;38.17;28.47;;;16.20;99.90;;;;;;5131276;27;20427;-66
2023/05/23 10:21:58;;;;;;;41.57;29.70;;;16.30;99.90;;;;;;5131189;27;20457;-66
2023/05/23 10:24:24;;;;;;;37.90;31.27;;;16.30;99.90;;;;;;5112519;27;20424;-66
2023/05/23 10:26:51;;;;;;;38.93;30.47;;;16.30;99.90;;;;;;5130826;27;20431;-67
2023/05/23 10:29:16;;;;;;;42.17;31.10;;;16.30;99.90;;;;;;5130620;27;20405;-67
2023/05/23 10:31:43;;;;;;;40.27;31.40;;;16.30;99.90;;;;;;5112286;27;20467;-66
2023/05/23 10:34:35;;;;;;;40.20;31.70;;;16.30;99.90;;;;;;5130841;27;20983;-67
2023/05/23 10:37:04;;;;;;;41.27;31.27;;;16.40;99.90;;;;;;5130417;27;20524;-66
2023/05/23 10:39:35;;;;;;;41.43;30.83;;;16.40;99.90;;;;;;5130646;27;20419;-66
2023/05/23 10:42:14;;;;;;;40.10;31.90;;;16.30;99.90;;;;;;5111848;27;20530;-66
2023/05/23 10:44:40;;;;;;;35.50;29.13;;;16.30;99.90;;;;;;5130884;27;20409;-66
2023/05/23 10:47:06;;;;;;;44.00;29.53;;;16.40;99.90;;;;;;5130650;27;20440;-66
2023/05/23 10:49:38;;;;;;;35.90;28.50;;;16.40;99.90;;;;;;5131049;27;20255;-65
2023/05/23 10:52:06;;;;;;;32.67;26.43;;;16.50;99.90;;;;;;5131250;27;20428;-66
2023/05/23 10:54:43;;;;;;;31.40;25.23;;;16.50;99.90;;;;;;5112402;27;20531;-65
2023/05/23 10:57:13;;;;;;;32.53;25.23;;;16.50;99.90;;;;;;5131232;27;20432;-66
2023/05/23 10:59:39;;;;;;;33.70;25.73;;;16.60;99.90;;;;;;5131228;27;20412;-65
2023/05/23 11:02:14;;;;;;;31.90;24.77;;;16.60;99.90;;;;;;5131201;27;20416;-67
2023/05/23 11:04:41;;;;;;;32.77;24.90;;;16.50;99.90;;;;;;5131313;27;20420;-66
2023/05/23 11:07:30;;;;;;;32.93;24.30;;;16.60;99.90;;;;;;5130347;27;20470;-67
2023/05/23 11:10:07;;;;;;;41.80;24.10;;;16.60;99.90;;;;;;5130394;27;20413;-66
2023/05/23 11:12:43;;;;;;;31.30;23.63;;;16.60;99.90;;;;;;5130098;27;20420;-65
2023/05/23 11:15:20;;;;;;;28.87;22.10;;;16.60;99.90;;;;;;5129884;27;20957;-66
2023/05/23 11:17:54;;;;;;;29.83;23.00;;;16.70;99.90;;;;;;5129594;27;20541;-66
2023/05/23 11:20:29;;;;;;;26.30;20.97;;;16.80;99.90;;;;;;5111176;27;20435;-66
2023/05/23 11:23:01;;;;;;;28.40;22.50;;;16.90;99.90;;;;;;5111232;27;20446;-67
2023/05/23 11:25:49;;;;;;;28.90;21.93;;;16.90;99.90;;;;;;5128869;27;20893;-66
2023/05/23 11:28:16;;;;;;;29.07;22.17;;;16.90;99.90;;;;;;5129315;27;20424;-66
2023/05/23 11:30:42;;;;;;;20.93;17.97;;;16.90;99.90;;;;;;5129530;27;20449;-67
2023/05/23 11:33:15;;;;;;;29.97;21.60;;;17.00;99.90;;;;;;5129479;27;20934;-66
2023/05/23 11:35:48;;;;;;;26.33;21.27;;;17.10;99.90;;;;;;5128972;27;20232;-67
2023/05/23 11:38:15;;;;;;;28.07;21.57;;;17.20;99.90;;;;;;5128873;27;20654;-67
2023/05/23 11:40:45;;;;;;;22.73;19.57;;;17.30;99.90;;;;;;5110230;27;20417;-67
2023/05/23 11:43:14;;;;;;;22.30;17.97;;;17.40;99.90;;;;;;5128599;27;20459;-67
2023/05/23 11:45:40;;;;;;;27.90;20.40;;;17.50;99.90;;;;;;5128820;27;20411;-67
2023/05/23 11:48:15;;;;;;;27.60;20.43;;;17.60;99.90;;;;;;5109800;27;20873;-67
2023/05/23 11:50:49;;;;;;;24.53;18.70;;;17.70;99.90;;;;;;5128581;27;20428;-68
2023/05/23 11:53:17;;;;;;;22.90;18.10;;;17.80;99.90;;;;;;5128447;27;20419;-67
2023/05/23 11:55:56;;;;;;;26.07;18.57;;;17.80;99.90;;;;;;5128512;27;20557;-67
2023/05/23 11:58:25;;;;;;;24.20;17.20;;;17.90;99.90;;;;;;5128547;27;20464;-68
2023/05/23 12:00:51;;;;;;;22.13;18.03;;;18.10;99.90;;;;;;5128451;27;20780;-66
2023/05/23 12:03:17;;;;;;;20.63;16.97;;;18.30;99.90;;;;;;5128429;27;20451;-66
2023/05/23 12:05:44;;;;;;;19.27;17.00;;;18.30;99.90;;;;;;5128426;27;20180;-66
2023/05/23 12:08:12;;;;;;;16.83;14.60;;;18.40;99.90;;;;;;5128161;27;20687;-66
2023/05/23 12:11:06;;;;;;;20.73;16.17;;;18.20;99.90;;;;;;5128347;27;20508;-66
2023/05/23 12:13:31;;;;;;;20.30;15.20;;;18.00;99.90;;;;;;5128197;27;21239;-66
2023/05/23 12:15:59;;;;;;;17.33;15.40;;;17.90;99.90;;;;;;5128600;27;20426;-66
2023/05/23 12:18:28;;;;;;;17.47;15.30;;;17.90;99.90;;;;;;5128040;27;20258;-66
2023/05/23 12:20:54;;;;;;;16.90;14.80;;;18.00;99.90;;;;;;5109620;27;20925;-66
2023/05/23 12:23:26;;;;;;;18.90;15.43;;;18.10;99.90;;;;;;5127907;27;20425;-66
2023/05/23 12:25:52;;;;;;;16.80;14.73;;;18.20;99.90;;;;;;5128155;27;20191;-68